Time;durP1;ratioP1;P1;durP2;ratioP2;P2;SDS_P1;SDS_P2;PMS_P1;PMS_P2;Temp;Humidity;BMP_temperature;BMP_pressure;BME280_temperature;BME280_humidity;BME280_pressure;Samples;Min_cycle;Max_cycle;Signal;HPM_P1;HPM_P2
2023/07/10 00:01:47;;;;;;;;;;;;;;;20.70;100.00;101898.38;10458641;28;19939;-65
2023/07/10 00:06:49;;;;;;;;;;;;;;;21.00;100.00;101881.66;10458985;28;19951;-65
2023/07/10 00:11:51;;;;;;;;;;;;;;;21.07;100.00;101889.97;10458381;28;19940;-65
2023/07/10 00:16:53;;;;;;;;;;;;;;;21.14;100.00;101886.63;10458093;28;19925;-65
2023/07/10 00:21:56;;;;;;;;;;;;;;;20.91;100.00;101885.06;10458017;28;19994;-65
2023/07/10 00:26:58;;;;;;;;;;;;;;;21.06;100.00;101894.41;10457703;28;19947;-66
2023/07/10 00:32:01;;;;;;;;;;;;;;;20.83;100.00;101891.06;10457759;28;19925;-66
2023/07/10 00:37:03;;;;;;;;;;;;;;;20.38;100.00;101900.00;10457510;28;19931;-65
2023/07/10 00:42:24;;;;;;;;;;;;;;;20.63;100.00;101894.50;10457493;28;19931;-65
2023/07/10 00:47:34;;;;;;;;;;;;;;;20.86;100.00;101898.75;10455971;28;19929;-65
2023/07/10 00:52:41;;;;;;;;;;;;;;;20.91;100.00;101890.41;10456260;28;19929;-65
2023/07/10 00:57:43;;;;;;;;;;;;;;;20.82;100.00;101876.03;10455805;28;19924;-65
2023/07/10 01:02:45;;;;;;;;;;;;;;;20.73;100.00;101879.50;10457055;28;19931;-65
2023/07/10 01:07:48;;;;;;;;;;;;;;;20.65;100.00;101877.47;10455675;28;19925;-66
2023/07/10 01:12:51;;;;;;;;;;;;;;;20.67;100.00;101880.81;10455443;28;20007;-66
2023/07/10 01:17:53;;;;;;;;;;;;;;;20.79;100.00;101873.63;10463270;28;19924;-65
2023/07/10 01:22:55;;;;;;;;;;;;;;;20.65;100.00;101888.09;10465303;28;19964;-65
2023/07/10 01:27:57;;;;;;;;;;;;;;;20.34;100.00;101900.38;10480077;28;19925;-64
2023/07/10 01:32:59;;;;;;;;;;;;;;;20.90;100.00;101907.34;10464557;28;20379;-64
2023/07/10 01:38:02;;;;;;;;;;;;;;;20.79;100.00;101900.25;10463208;28;20367;-64
2023/07/10 01:43:04;;;;;;;;;;;;;;;20.55;100.00;101898.63;10464367;28;19931;-64
2023/07/10 01:48:06;;;;;;;;;;;;;;;20.69;100.00;101897.50;10463970;28;20206;-64
2023/07/10 01:53:09;;;;;;;;;;;;;;;20.53;100.00;101902.41;10463878;28;20283;-65
2023/07/10 01:58:12;;;;;;;;;;;;;;;20.49;100.00;101904.44;10462641;28;20114;-64
2023/07/10 02:03:14;;;;;;;;;;;;;;;20.42;100.00;101901.47;10462540;28;19924;-65
2023/07/10 02:08:16;;;;;;;;;;;;;;;20.39;100.00;101907.03;10463258;28;19928;-64
2023/07/10 02:13:19;;;;;;;;;;;;;;;20.35;100.00;101899.41;10462815;28;19931;-65
2023/07/10 02:18:21;;;;;;;;;;;;;;;20.26;100.00;101895.72;10461863;28;20371;-64
2023/07/10 02:23:24;;;;;;;;;;;;;;;20.19;100.00;101898.00;10462591;28;19925;-66
2023/07/10 02:28:26;;;;;;;;;;;;;;;20.15;100.00;101895.72;10461157;28;19947;-65
2023/07/10 02:33:28;;;;;;;;;;;;;;;20.30;100.00;101902.44;10462654;28;19931;-64
2023/07/10 02:38:30;;;;;;;;;;;;;;;20.17;100.00;101907.94;10462148;28;19932;-66
2023/07/10 02:43:33;;;;;;;;;;;;;;;20.27;100.00;101901.84;10462101;28;19925;-65
2023/07/10 02:48:35;;;;;;;;;;;;;;;20.27;100.00;101909.84;10460527;28;19925;-65
2023/07/10 02:53:37;;;;;;;;;;;;;;;20.22;100.00;101924.38;10462125;28;19929;-65
2023/07/10 02:58:40;;;;;;;;;;;;;;;20.34;100.00;101921.66;10461338;28;19971;-65
2023/07/10 03:03:45;;;;;;;;;;;;;;;20.28;100.00;101917.69;10461389;28;19924;-65
2023/07/10 03:08:47;;;;;;;;;;;;;;;20.16;100.00;101916.03;10461070;28;19975;-65
2023/07/10 03:13:50;;;;;;;;;;;;;;;20.21;100.00;101927.97;10460551;28;19929;-65
2023/07/10 03:18:52;;;;;;;;;;;;;;;20.20;100.00;101934.25;10459232;28;19972;-65
2023/07/10 03:23:54;;;;;;;;;;;;;;;20.09;100.00;101950.25;10460375;28;19931;-64
2023/07/10 03:29:07;;;;;;;;;;;;;;;20.09;100.00;101942.25;10460073;28;19936;-66
2023/07/10 03:34:11;;;;;;;;;;;;;;;20.14;100.00;101948.06;10460079;28;19932;-65
2023/07/10 03:39:13;;;;;;;;;;;;;;;20.00;100.00;101946.47;10459674;28;19925;-65
2023/07/10 03:44:15;;;;;;;;;;;;;;;19.78;100.00;101952.66;10459678;28;19931;-65
2023/07/10 03:49:17;;;;;;;;;;;;;;;19.92;100.00;101956.91;10459314;28;19935;-65
2023/07/10 03:54:20;;;;;;;;;;;;;;;19.66;100.00;101975.66;10459255;28;19932;-66
2023/07/10 03:59:22;;;;;;;;;;;;;;;19.88;100.00;101983.81;10458951;28;19925;-66
2023/07/10 04:04:24;;;;;;;;;;;;;;;20.00;100.00;101974.88;10458977;28;19924;-65
2023/07/10 04:09:26;;;;;;;;;;;;;;;19.83;100.00;101981.53;10458486;28;19932;-64
2023/07/10 04:14:29;;;;;;;;;;;;;;;19.77;100.00;101971.34;10458396;28;19924;-64
2023/07/10 04:19:31;;;;;;;;;;;;;;;19.91;100.00;101971.13;10458589;28;19925;-64
2023/07/10 04:24:33;;;;;;;;;;;;;;;19.67;100.00;101972.06;10458008;28;19932;-65
2023/07/10 04:29:37;;;;;;;;;;;;;;;19.73;100.00;101986.66;10457935;28;19932;-64
2023/07/10 04:34:39;;;;;;;;;;;;;;;19.33;100.00;101986.22;10456785;28;19929;-66
2023/07/10 04:39:42;;;;;;;;;;;;;;;19.76;100.00;101990.94;10456669;28;19931;-65
2023/07/10 04:44:47;;;;;;;;;;;;;;;19.91;100.00;101987.09;10457546;28;19929;-66
2023/07/10 04:49:49;;;;;;;;;;;;;;;19.97;100.00;101988.41;10456606;28;19925;-65
2023/07/10 04:54:51;;;;;;;;;;;;;;;20.02;100.00;101996.84;10457172;28;19925;-64
2023/07/10 04:59:54;;;;;;;;;;;;;;;19.94;100.00;101988.63;10456874;28;20398;-66
2023/07/10 05:04:56;;;;;;;;;;;;;;;19.66;100.00;101988.94;10455632;28;19931;-66
2023/07/10 05:09:58;;;;;;;;;;;;;;;19.46;100.00;101992.28;10456572;28;19932;-65
2023/07/10 05:15:00;;;;;;;;;;;;;;;19.72;100.00;102002.72;10456498;28;19931;-65
2023/07/10 05:20:03;;;;;;;;;;;;;;;19.95;100.00;102000.97;10456627;28;19924;-66
2023/07/10 05:25:05;;;;;;;;;;;;;;;19.88;100.00;101999.78;10456558;28;19931;-66
2023/07/10 05:30:08;;;;;;;;;;;;;;;19.76;100.00;102009.53;10456863;28;19928;-65
2023/07/10 05:35:10;;;;;;;;;;;;;;;19.81;100.00;102005.56;10456346;28;20278;-65
2023/07/10 05:40:12;;;;;;;;;;;;;;;20.00;100.00;101996.97;10456450;28;19934;-65
2023/07/10 05:45:14;;;;;;;;;;;;;;;19.75;100.00;102003.34;10456152;28;19924;-66
2023/07/10 05:50:17;;;;;;;;;;;;;;;20.15;100.00;102010.88;10456102;28;19929;-64
2023/07/10 05:55:19;;;;;;;;;;;;;;;20.17;100.00;102006.31;10455973;28;19924;-64
2023/07/10 06:00:21;;;;;;;;;;;;;;;19.96;98.88;102014.16;10457328;28;19925;-66
2023/07/10 06:05:23;;;;;;;;;;;;;;;20.18;98.21;102015.13;10463626;28;19932;-65
2023/07/10 06:10:25;;;;;;;;;;;;;;;20.58;89.68;102010.13;10463063;28;19925;-65
2023/07/10 06:15:28;;;;;;;;;;;;;;;19.98;89.34;102014.03;10462998;28;19959;-65
2023/07/10 06:20:30;;;;;;;;;;;;;;;20.44;87.95;102010.38;10463029;28;19925;-65
2023/07/10 06:25:32;;;;;;;;;;;;;;;20.34;90.60;102014.72;10469907;23;19925;-67
2023/07/10 06:30:37;;;;;;;;;;;;;;;20.15;88.25;102012.69;10462422;28;20359;-68
2023/07/10 06:35:41;;;;;;;;;;;;;;;20.15;89.38;102012.69;10462296;28;20286;-67
2023/07/10 06:40:44;;;;;;;;;;;;;;;20.27;88.62;102014.38;10462330;28;19967;-68
2023/07/10 06:45:46;;;;;;;;;;;;;;;20.57;90.44;102016.41;10461991;28;19925;-68
2023/07/10 06:50:49;;;;;;;;;;;;;;;20.47;86.66;102023.44;10443938;28;20532;-68
2023/07/10 06:55:56;;;;;;;;;;;;;;;20.76;84.28;102028.25;10444079;28;19928;-68
2023/07/10 07:00:59;;;;;;;;;;;;;;;20.82;83.41;102030.41;10443950;28;19924;-67
2023/07/10 07:06:04;;;;;;;;;;;;;;;20.86;79.36;102033.66;10461102;28;20383;-68
2023/07/10 07:11:07;;;;;;;;;;;;;;;21.09;79.57;102032.63;10460520;28;20356;-68
2023/07/10 07:16:09;;;;;;;;;;;;;;;21.18;76.71;102031.00;10442744;28;20284;-68
2023/07/10 07:21:13;;;;;;;;;;;;;;;21.25;75.17;102034.88;10460580;28;19931;-67
2023/07/10 07:26:15;;;;;;;;;;;;;;;22.17;72.30;102049.34;10460086;28;19924;-68
2023/07/10 07:31:17;;;;;;;;;;;;;;;21.97;69.42;102049.25;10460398;28;19925;-68
2023/07/10 07:36:20;;;;;;;;;;;;;;;22.08;69.78;102056.31;10459868;28;20364;-68
2023/07/10 07:41:22;;;;;;;;;;;;;;;22.87;67.22;102042.25;10442163;28;19924;-68
2023/07/10 07:46:24;;;;;;;;;;;;;;;23.49;66.72;102032.16;10459309;28;19924;-69
2023/07/10 07:51:27;;;;;;;;;;;;;;;23.74;64.28;102038.72;10459574;28;19947;-69
2023/07/10 07:56:29;;;;;;;;;;;;;;;23.24;63.11;102036.25;10459814;28;19964;-69
2023/07/10 08:01:32;;;;;;;;;;;;;;;24.19;61.56;102039.03;10458785;28;19947;-69
2023/07/10 08:06:34;;;;;;;;;;;;;;;23.78;63.83;102043.78;10441161;28;20284;-68
2023/07/10 08:11:36;;;;;;;;;;;;;;;24.38;62.74;102046.13;10458512;28;19928;-68
2023/07/10 08:16:38;;;;;;;;;;;;;;;24.71;61.64;102035.81;10440764;28;19931;-68
2023/07/10 08:21:41;;;;;;;;;;;;;;;25.33;60.31;102027.88;10458141;28;20295;-68
2023/07/10 08:26:43;;;;;;;;;;;;;;;25.69;58.98;102035.84;10458063;28;19924;-68
2023/07/10 08:31:45;;;;;;;;;;;;;;;25.12;59.30;102028.19;10457857;28;20375;-68
2023/07/10 08:36:49;;;;;;;;;;;;;;;25.01;60.20;102032.75;10457703;28;19925;-68
2023/07/10 08:41:52;;;;;;;;;;;;;;;26.40;57.87;102025.81;10457659;28;19925;-68
2023/07/10 08:46:55;;;;;;;;;;;;;;;25.61;58.55;102031.28;10423374;28;19925;-68
2023/07/10 08:51:57;;;;;;;;;;;;;;;25.16;60.59;102038.41;10439827;28;19932;-67
2023/07/10 08:57:04;;;;;;;;;;;;;;;25.58;57.91;102032.41;10457233;28;19935;-68
2023/07/10 09:02:38;;;;;;;;;;;;;;;26.18;57.75;102029.94;10439257;28;19924;-68
2023/07/10 09:07:42;;;;;;;;;;;;;;;25.21;57.40;102036.13;10433929;28;19925;-68
2023/07/10 09:12:48;;;;;;;;;;;;;;;26.06;57.91;102038.28;10456718;28;20011;-68
2023/07/10 09:18:09;;;;;;;;;;;;;;;27.03;55.83;102035.19;10439146;28;19932;-68
2023/07/10 09:23:18;;;;;;;;;;;;;;;26.11;57.88;102046.69;10456532;28;20368;-68
2023/07/10 09:28:21;;;;;;;;;;;;;;;27.10;55.12;102035.38;10456458;28;19935;-68
2023/07/10 09:33:23;;;;;;;;;;;;;;;27.85;56.39;102040.53;10456302;28;20370;-69
2023/07/10 09:38:25;;;;;;;;;;;;;;;26.88;53.47;102049.31;10429301;28;19947;-69
2023/07/10 09:43:28;;;;;;;;;;;;;;;27.35;56.20;102026.34;10464668;28;19931;-68
2023/07/10 09:48:30;;;;;;;;;;;;;;;28.09;53.89;102038.81;10446331;28;19929;-68
2023/07/10 09:53:34;;;;;;;;;;;;;;;27.91;51.83;102026.38;10464023;28;19925;-68
2023/07/10 09:58:44;;;;;;;;;;;;;;;27.70;54.36;102021.56;10464115;28;20395;-68
2023/07/10 10:03:46;;;;;;;;;;;;;;;28.91;50.61;102017.66;10463561;28;20102;-68
2023/07/10 10:08:49;;;;;;;;;;;;;;;28.98;49.80;102028.53;10445542;28;20371;-69
2023/07/10 10:13:57;;;;;;;;;;;;;;;29.53;49.83;102025.75;10463198;28;20446;-68
2023/07/10 10:19:03;;;;;;;;;;;;;;;30.27;50.26;102023.03;10429392;28;19964;-69
2023/07/10 10:24:07;;;;;;;;;;;;;;;28.30;48.73;102020.19;10445161;28;19925;-68
2023/07/10 10:29:13;;;;;;;;;;;;;;;28.33;49.68;102024.41;10444782;28;19931;-68
2023/07/10 10:34:34;;;;;;;;;;;;;;;29.20;47.91;102035.00;10462418;28;19931;-69
2023/07/10 10:39:37;;;;;;;;;;;;;;;27.77;48.70;102024.41;10462318;28;19935;-68
2023/07/10 10:45:02;;;;;;;;;;;;;;;27.41;50.39;102031.03;10462408;28;19962;-68
2023/07/10 10:50:20;;;;;;;;;;;;;;;28.91;47.37;102028.44;10443003;28;19925;-68
2023/07/10 10:55:33;;;;;;;;;;;;;;;28.56;48.71;102037.94;10462104;28;19964;-69
2023/07/10 11:00:54;;;;;;;;;;;;;;;29.47;47.23;102016.53;10443633;28;20253;-68
2023/07/10 11:05:57;;;;;;;;;;;;;;;30.08;46.63;102018.25;10443515;28;20012;-69
2023/07/10 11:11:00;;;;;;;;;;;;;;;31.49;45.10;102018.66;10443292;28;19928;-68
2023/07/10 11:16:03;;;;;;;;;;;;;;;31.98;43.85;102025.81;10443106;28;20388;-68
2023/07/10 11:21:05;;;;;;;;;;;;;;;29.83;46.43;102029.34;10443183;28;19932;-68
2023/07/10 11:26:29;;;;;;;;;;;;;;;31.55;45.35;102023.28;10442455;28;19925;-67
2023/07/10 11:31:31;;;;;;;;;;;;;;;27.77;48.54;102033.34;10442345;28;19925;-68
2023/07/10 11:36:34;;;;;;;;;;;;;;;31.12;47.26;102023.38;10460164;28;19925;-68
2023/07/10 11:41:39;;;;;;;;;;;;;;;29.99;46.82;102018.34;10459973;28;19925;-68
2023/07/10 11:46:55;;;;;;;;;;;;;;;31.39;44.14;102012.72;10459498;28;19925;-68
2023/07/10 11:52:18;;;;;;;;;;;;;;;31.70;43.43;102016.94;10459378;28;19924;-69
2023/07/10 11:57:24;;;;;;;;;;;;;;;30.28;42.40;102013.06;10459042;28;19951;-68
2023/07/10 12:02:32;;;;;;;;;;;;;;;32.38;42.17;102022.44;10459207;28;19939;-68
2023/07/10 12:07:34;;;;;;;;;;;;;;;29.67;44.64;102019.50;10458698;28;19975;-68
2023/07/10 12:12:36;;;;;;;;;;;;;;;32.25;42.50;102023.25;10458804;28;19931;-69
2023/07/10 12:17:39;;;;;;;;;;;;;;;29.94;45.28;102014.53;10458387;28;19925;-68
2023/07/10 12:22:42;;;;;;;;;;;;;;;31.52;44.02;102009.31;10440805;28;19924;-68
2023/07/10 12:27:44;;;;;;;;;;;;;;;31.71;42.95;102003.19;10457759;28;20298;-68
2023/07/10 12:33:32;;;;;;;;;;;;;;;32.34;40.99;101989.50;10458757;28;19947;-67
2023/07/10 12:38:34;;;;;;;;;;;;;;;30.96;42.58;102000.13;10455550;28;19947;-68
2023/07/10 12:43:37;;;;;;;;;;;;;;;32.01;41.52;101987.50;10440031;28;19932;-68
2023/07/10 12:48:40;;;;;;;;;;;;;;;29.79;44.41;102001.88;10457606;28;19924;-68
2023/07/10 12:53:42;;;;;;;;;;;;;;;30.03;41.62;101999.91;10439891;28;20482;-68
2023/07/10 12:58:47;;;;;;;;;;;;;;;29.76;44.41;101988.72;10439770;28;19925;-68
2023/07/10 13:04:00;;;;;;;;;;;;;;;30.81;43.38;101992.06;10456858;28;19929;-68
2023/07/10 13:09:03;;;;;;;;;;;;;;;30.25;42.18;101981.88;10438808;28;19932;-68
2023/07/10 13:14:05;;;;;;;;;;;;;;;31.45;42.41;101968.66;10456440;28;19932;-68
2023/07/10 13:19:16;;;;;;;;;;;;;;;29.01;44.24;101973.44;10440146;28;19948;-69
2023/07/10 13:24:18;;;;;;;;;;;;;;;31.66;41.38;101974.00;10456598;28;20003;-68
2023/07/10 13:29:20;;;;;;;;;;;;;;;30.20;43.13;101976.22;10456630;28;20291;-68
2023/07/10 13:34:23;;;;;;;;;;;;;;;31.35;38.58;101960.06;10456443;28;19925;-68
2023/07/10 13:39:25;;;;;;;;;;;;;;;31.11;41.66;101962.19;10456097;28;20367;-68
2023/07/10 13:44:27;;;;;;;;;;;;;;;30.44;41.53;101976.94;10456218;28;19928;-68
2023/07/10 13:49:29;;;;;;;;;;;;;;;31.92;39.10;101961.63;10456006;28;19948;-67
2023/07/10 13:54:32;;;;;;;;;;;;;;;30.74;41.20;101964.13;10455946;28;20375;-67
2023/07/10 13:59:34;;;;;;;;;;;;;;;31.82;40.69;101967.41;10455835;28;20283;-68
2023/07/10 14:04:39;;;;;;;;;;;;;;;30.19;42.88;101972.69;10455692;28;19932;-67
2023/07/10 14:09:41;;;;;;;;;;;;;;;31.45;40.25;101960.53;10438066;28;19925;-68
2023/07/10 14:14:43;;;;;;;;;;;;;;;32.57;38.27;101947.66;10455727;28;19936;-68
2023/07/10 14:19:45;;;;;;;;;;;;;;;30.83;40.48;101954.00;10455501;28;19925;-67
2023/07/10 14:24:48;;;;;;;;;;;;;;;32.45;38.92;101952.84;10461957;28;20298;-68
2023/07/10 14:29:50;;;;;;;;;;;;;;;29.58;41.94;101953.19;10462530;28;19972;-68
2023/07/10 14:34:52;;;;;;;;;;;;;;;30.54;40.24;101936.91;10462353;28;19925;-68
2023/07/10 14:39:55;;;;;;;;;;;;;;;31.36;40.36;101940.91;10462517;28;19964;-67
2023/07/10 14:44:57;;;;;;;;;;;;;;;29.62;41.97;101949.94;10462208;28;19924;-68
2023/07/10 14:50:00;;;;;;;;;;;;;;;28.81;43.07;101938.91;10461846;28;20019;-68
2023/07/10 14:55:03;;;;;;;;;;;;;;;29.04;45.09;101938.88;10461812;28;19932;-67
2023/07/10 15:00:19;;;;;;;;;;;;;;;30.73;43.45;101922.75;10461419;28;19925;-68
2023/07/10 15:05:23;;;;;;;;;;;;;;;30.85;39.84;101911.41;10461636;28;19932;-67
2023/07/10 15:10:26;;;;;;;;;;;;;;;31.75;40.59;101915.13;10461159;28;19925;-68
2023/07/10 15:15:33;;;;;;;;;;;;;;;31.65;39.43;101917.38;10461004;28;19925;-68
2023/07/10 15:20:36;;;;;;;;;;;;;;;31.29;40.41;101907.59;10460986;28;19925;-68
2023/07/10 15:25:38;;;;;;;;;;;;;;;31.59;39.62;101908.19;10460364;28;19948;-67
2023/07/10 15:30:40;;;;;;;;;;;;;;;30.66;41.33;101889.41;10460718;28;19929;-67
2023/07/10 15:35:42;;;;;;;;;;;;;;;30.59;40.64;101890.41;10459482;28;20007;-67
2023/07/10 15:40:45;;;;;;;;;;;;;;;29.81;43.99;101891.88;10442468;28;19932;-67
2023/07/10 15:45:48;;;;;;;;;;;;;;;30.67;42.52;101883.00;10459991;28;19932;-68
2023/07/10 15:50:51;;;;;;;;;;;;;;;29.36;44.24;101884.81;10442058;28;20020;-67
2023/07/10 15:55:53;;;;;;;;;;;;;;;29.73;44.03;101870.34;10441663;28;20039;-68
2023/07/10 16:00:57;;;;;;;;;;;;;;;28.58;44.08;101862.66;10458432;28;20212;-68
2023/07/10 16:06:01;;;;;;;;;;;;;;;28.34;47.96;101857.28;10459065;28;20016;-67
2023/07/10 16:11:23;;;;;;;;;;;;;;;27.19;52.09;101859.66;10458596;28;19928;-67
2023/07/10 16:16:25;;;;;;;;;;;;;;;27.72;51.01;101866.22;10458508;28;19932;-67
2023/07/10 16:21:28;;;;;;;;;;;;;;;27.23;51.66;101866.34;10458412;28;19925;-67
2023/07/10 16:26:30;;;;;;;;;;;;;;;27.13;50.07;101846.91;10457916;28;20311;-67
2023/07/10 16:31:32;;;;;;;;;;;;;;;26.82;54.94;101850.31;10458117;28;19933;-67
2023/07/10 16:36:35;;;;;;;;;;;;;;;27.41;54.81;101848.16;10440168;28;19924;-67
2023/07/10 16:41:37;;;;;;;;;;;;;;;26.75;54.44;101834.03;10457688;28;20394;-67
2023/07/10 16:46:39;;;;;;;;;;;;;;;26.54;54.99;101836.38;10439035;28;20364;-67
2023/07/10 16:51:42;;;;;;;;;;;;;;;26.85;56.28;101832.00;10457392;28;19925;-67
2023/07/10 16:56:44;;;;;;;;;;;;;;;27.68;52.17;101818.31;10457372;28;20287;-67
2023/07/10 17:01:47;;;;;;;;;;;;;;;28.12;52.15;101820.41;10457202;28;19925;-67
2023/07/10 17:06:49;;;;;;;;;;;;;;;27.86;51.85;101818.88;10457285;28;19931;-67
2023/07/10 17:11:52;;;;;;;;;;;;;;;27.27;51.41;101824.69;10439091;28;19924;-67
2023/07/10 17:16:54;;;;;;;;;;;;;;;27.17;52.74;101816.81;10456644;28;20380;-67
2023/07/10 17:21:56;;;;;;;;;;;;;;;26.58;53.90;101822.44;10456591;28;19964;-67
2023/07/10 17:26:58;;;;;;;;;;;;;;;26.30;54.42;101812.03;10456629;28;20283;-67
2023/07/10 17:32:03;;;;;;;;;;;;;;;26.53;57.13;101800.63;10456278;28;19931;-67
2023/07/10 17:37:05;;;;;;;;;;;;;;;26.82;56.83;101801.97;10456252;28;19950;-67
2023/07/10 17:42:20;;;;;;;;;;;;;;;26.43;55.72;101786.56;10456691;28;20364;-67
2023/07/10 17:47:22;;;;;;;;;;;;;;;26.11;58.23;101793.59;10438675;28;19925;-67
2023/07/10 17:52:24;;;;;;;;;;;;;;;25.51;59.84;101794.59;10455888;28;20273;-67
2023/07/10 17:57:27;;;;;;;;;;;;;;;25.82;62.26;101792.16;10459539;28;19924;-66
2023/07/10 18:02:33;;;;;;;;;;;;;;;25.50;64.83;101787.56;10463938;28;19924;-67
2023/07/10 18:07:35;;;;;;;;;;;;;;;25.06;66.56;101793.03;10446024;28;19924;-66
2023/07/10 18:12:38;;;;;;;;;;;;;;;25.04;66.45;101793.19;10463198;28;20287;-66
2023/07/10 18:17:41;;;;;;;;;;;;;;;25.08;66.96;101788.34;10445648;28;20011;-66
2023/07/10 18:22:43;;;;;;;;;;;;;;;24.94;67.63;101793.28;10445282;28;19928;-67
2023/07/10 18:27:45;;;;;;;;;;;;;;;24.67;68.22;101791.63;10444933;28;19931;-66
2023/07/10 18:32:48;;;;;;;;;;;;;;;24.40;68.97;101784.53;10444667;28;20371;-67
2023/07/10 18:37:50;;;;;;;;;;;;;;;24.26;70.47;101776.06;10462531;28;19928;-66
2023/07/10 18:42:52;;;;;;;;;;;;;;;24.28;70.40;101778.59;10469465;22;19940;-66
2023/07/10 18:47:54;;;;;;;;;;;;;;;24.13;71.22;101772.94;10461982;28;19932;-66
2023/07/10 18:52:57;;;;;;;;;;;;;;;23.81;71.05;101768.09;10461580;28;19928;-72
2023/07/10 18:57:59;;;;;;;;;;;;;;;23.60;71.77;101765.69;10460847;28;20011;-66
2023/07/10 19:03:01;;;;;;;;;;;;;;;23.47;72.10;101774.91;10461400;28;20387;-66
2023/07/10 19:08:03;;;;;;;;;;;;;;;23.18;73.46;101769.69;10459699;28;19932;-66
2023/07/10 19:13:12;;;;;;;;;;;;;;;23.05;74.00;101763.81;10461296;28;19924;-67
2023/07/10 19:18:15;;;;;;;;;;;;;;;22.81;75.47;101766.00;10460892;28;19925;-67
2023/07/10 19:23:19;;;;;;;;;;;;;;;22.78;75.40;101752.94;10460602;28;19925;-67
2023/07/10 19:28:22;;;;;;;;;;;;;;;22.62;76.19;101755.38;10442955;28;19935;-67
2023/07/10 19:33:28;;;;;;;;;;;;;;;22.41;76.29;101742.22;10460026;28;19925;-67
2023/07/10 19:38:31;;;;;;;;;;;;;;;22.36;75.67;101736.44;10458988;28;20007;-67
2023/07/10 19:43:33;;;;;;;;;;;;;;;22.23;75.53;101739.41;10459738;28;19925;-67
2023/07/10 19:48:35;;;;;;;;;;;;;;;22.05;76.81;101741.94;10459912;28;19932;-67
2023/07/10 19:53:38;;;;;;;;;;;;;;;21.85;76.64;101738.41;10459642;28;20023;-67
2023/07/10 19:58:40;;;;;;;;;;;;;;;21.68;78.17;101739.94;10459173;28;20024;-67
2023/07/10 20:03:42;;;;;;;;;;;;;;;21.48;78.51;101733.72;10459014;28;20276;-67
2023/07/10 20:08:45;;;;;;;;;;;;;;;21.11;80.97;101735.13;10457631;28;19929;-67
2023/07/10 20:13:47;;;;;;;;;;;;;;;21.13;81.03;101729.66;10458633;28;19924;-67
2023/07/10 20:18:50;;;;;;;;;;;;;;;21.00;82.61;101732.56;10458530;28;19967;-67
2023/07/10 20:23:52;;;;;;;;;;;;;;;21.12;81.61;101725.31;10458214;28;19928;-67
2023/07/10 20:28:54;;;;;;;;;;;;;;;21.07;82.79;101714.25;10458188;28;19925;-67
2023/07/10 20:33:56;;;;;;;;;;;;;;;20.96;83.32;101712.50;10458059;28;19925;-67
2023/07/10 20:38:59;;;;;;;;;;;;;;;20.91;82.58;101704.06;10457936;28;19924;-66
2023/07/10 20:44:01;;;;;;;;;;;;;;;20.93;82.20;101708.28;10457492;28;19951;-67
2023/07/10 20:49:08;;;;;;;;;;;;;;;20.69;85.13;101705.94;10457687;28;19925;-66
2023/07/10 20:54:11;;;;;;;;;;;;;;;20.57;83.02;101702.47;10456197;28;19931;-66
2023/07/10 20:59:16;;;;;;;;;;;;;;;20.47;83.36;101701.56;10455998;28;19924;-66
2023/07/10 21:04:19;;;;;;;;;;;;;;;20.44;84.28;101695.69;10457121;28;19932;-66
2023/07/10 21:09:43;;;;;;;;;;;;;;;20.33;84.64;101697.44;10455782;28;19925;-65
2023/07/10 21:14:48;;;;;;;;;;;;;;;20.41;85.12;101691.47;10457049;28;19925;-66
2023/07/10 21:19:50;;;;;;;;;;;;;;;20.28;83.89;101688.16;10455582;28;20350;-65
2023/07/10 21:24:53;;;;;;;;;;;;;;;20.18;85.50;101683.63;10456855;28;19931;-66
2023/07/10 21:29:57;;;;;;;;;;;;;;;20.24;84.36;101690.25;10456562;28;19925;-66
2023/07/10 21:34:59;;;;;;;;;;;;;;;20.01;83.93;101689.53;10463561;28;19924;-66
2023/07/10 21:40:01;;;;;;;;;;;;;;;19.81;85.11;101692.00;10464739;28;20056;-66
2023/07/10 21:45:04;;;;;;;;;;;;;;;19.90;83.21;101682.41;10464290;28;20368;-66
2023/07/10 21:50:16;;;;;;;;;;;;;;;19.66;84.00;101682.63;10462957;28;19924;-67
2023/07/10 21:55:20;;;;;;;;;;;;;;;19.41;88.12;101675.81;10464208;28;20004;-66
2023/07/10 22:00:23;;;;;;;;;;;;;;;19.42;84.96;101677.50;10462857;28;20459;-66
2023/07/10 22:05:25;;;;;;;;;;;;;;;19.35;87.52;101673.63;10463772;28;20280;-66
2023/07/10 22:10:27;;;;;;;;;;;;;;;19.41;84.95;101673.97;10463689;28;19939;-66
2023/07/10 22:15:29;;;;;;;;;;;;;;;19.35;86.26;101665.66;10463461;28;20015;-66
2023/07/10 22:20:39;;;;;;;;;;;;;;;19.20;86.00;101668.59;10463197;28;19935;-66
2023/07/10 22:25:42;;;;;;;;;;;;;;;19.30;85.12;101669.56;10463139;28;19935;-66
2023/07/10 22:30:44;;;;;;;;;;;;;;;19.12;86.97;101663.06;10461653;28;19932;-65
2023/07/10 22:35:47;;;;;;;;;;;;;;;19.19;86.24;101658.09;10461444;28;19924;-66
2023/07/10 22:40:54;;;;;;;;;;;;;;;19.09;86.67;101655.34;10444763;28;19932;-66
2023/07/10 22:46:12;;;;;;;;;;;;;;;19.00;87.75;101651.63;10461072;28;19924;-66
2023/07/10 22:51:15;;;;;;;;;;;;;;;18.97;88.25;101645.72;10462055;28;19960;-66
2023/07/10 22:56:18;;;;;;;;;;;;;;;19.12;85.44;101650.63;10461739;28;20401;-66
2023/07/10 23:01:21;;;;;;;;;;;;;;;19.17;84.01;101644.13;10460528;28;20439;-66
2023/07/10 23:06:25;;;;;;;;;;;;;;;19.27;84.89;101637.94;10461421;28;19956;-66
2023/07/10 23:11:27;;;;;;;;;;;;;;;19.31;82.88;101634.06;10461077;28;19924;-66
2023/07/10 23:16:29;;;;;;;;;;;;;;;19.94;77.04;101625.41;10461076;28;19925;-66
2023/07/10 23:21:32;;;;;;;;;;;;;;;20.01;76.80;101617.75;10461249;28;19951;-66
2023/07/10 23:26:34;;;;;;;;;;;;;;;19.89;76.16;101626.75;10460700;28;20008;-66
2023/07/10 23:31:39;;;;;;;;;;;;;;;19.90;77.40;101608.00;10460306;28;20269;-66
2023/07/10 23:36:43;;;;;;;;;;;;;;;19.80;77.91;101609.75;10460161;28;19925;-66
2023/07/10 23:41:45;;;;;;;;;;;;;;;19.55;84.27;101609.13;10459944;28;20019;-66
2023/07/10 23:46:47;;;;;;;;;;;;;;;19.64;81.92;101604.88;10459712;28;20287;-66
2023/07/10 23:51:50;;;;;;;;;;;;;;;19.78;79.67;101593.13;10459850;28;19925;-66
2023/07/10 23:56:52;;;;;;;;;;;;;;;19.68;82.51;101598.31;10474738;28;20316;-66
